Time;durP1;ratioP1;P1;durP2;ratioP2;P2;SDS_P1;SDS_P2;PMS_P1;PMS_P2;Temp;Humidity;BMP_temperature;BMP_pressure;BME280_temperature;BME280_humidity;BME280_pressure;Samples;Min_cycle;Max_cycle;Signal;HPM_P1;HPM_P2
2021/05/20 00:00:27;;;;;;;4.00;2.88;;;;;;;;;;6232691;28;20055;-72
2021/05/20 00:03:29;;;;;;;4.50;2.70;;;;;;;;;;6251430;28;20051;-72
2021/05/20 00:06:30;;;;;;;3.88;2.85;;;;;;;;;;6247512;28;20054;-73
2021/05/20 00:09:31;;;;;;;8.15;2.95;;;;;;;;;;6246347;28;20059;-72
2021/05/20 00:12:33;;;;;;;6.30;2.80;;;;;;;;;;6248168;28;20061;-74
2021/05/20 00:15:34;;;;;;;4.47;2.80;;;;;;;;;;6255960;28;20144;-77
2021/05/20 00:18:36;;;;;;;4.65;2.80;;;;;;;;;;6239363;28;20061;-72
2021/05/20 00:21:37;;;;;;;4.22;2.90;;;;;;;;;;6238700;28;20092;-72
2021/05/20 00:24:38;;;;;;;6.38;3.35;;;;;;;;;;6238479;28;20537;-72
2021/05/20 00:27:39;;;;;;;6.88;3.42;;;;;;;;;;6264275;28;20055;-72
2021/05/20 00:30:40;;;;;;;6.18;3.30;;;;;;;;;;6265028;28;20048;-74
2021/05/20 00:33:42;;;;;;;5.18;3.38;;;;;;;;;;6258684;28;20041;-72
2021/05/20 00:36:43;;;;;;;5.05;3.20;;;;;;;;;;6248625;28;20144;-72
2021/05/20 00:39:44;;;;;;;6.00;3.83;;;;;;;;;;6254918;28;20081;-74
2021/05/20 00:42:45;;;;;;;4.78;3.22;;;;;;;;;;6256032;28;20044;-72
2021/05/20 00:45:46;;;;;;;7.43;3.80;;;;;;;;;;6242172;28;20121;-72
2021/05/20 00:48:48;;;;;;;5.25;3.38;;;;;;;;;;6244904;28;20041;-72
2021/05/20 00:51:50;;;;;;;5.13;3.17;;;;;;;;;;6239611;28;20449;-72
2021/05/20 00:54:52;;;;;;;5.70;3.50;;;;;;;;;;6243370;28;20056;-72
2021/05/20 00:57:54;;;;;;;4.63;3.60;;;;;;;;;;6255871;28;20516;-72
2021/05/20 01:00:56;;;;;;;7.28;3.33;;;;;;;;;;6244094;28;20046;-72
2021/05/20 01:03:58;;;;;;;5.50;3.80;;;;;;;;;;6244159;28;20064;-73
2021/05/20 01:06:59;;;;;;;6.15;4.10;;;;;;;;;;6264561;28;20059;-72
2021/05/20 01:10:00;;;;;;;4.82;3.90;;;;;;;;;;6251483;28;20716;-72
2021/05/20 01:13:01;;;;;;;5.88;3.83;;;;;;;;;;6235925;28;20045;-72
2021/05/20 01:16:09;;;;;;;5.32;3.72;;;;;;;;;;6254171;28;20045;-73
2021/05/20 01:19:11;;;;;;;8.73;3.85;;;;;;;;;;6239536;28;20063;-72
2021/05/20 01:22:14;;;;;;;5.53;3.72;;;;;;;;;;6239936;28;20080;-73
2021/05/20 01:25:15;;;;;;;5.55;4.10;;;;;;;;;;6245263;28;20041;-73
2021/05/20 01:28:17;;;;;;;6.65;3.30;;;;;;;;;;6237504;28;20049;-73
2021/05/20 01:31:19;;;;;;;6.07;3.92;;;;;;;;;;6239526;28;20497;-72
2021/05/20 01:34:20;;;;;;;7.55;3.50;;;;;;;;;;6240405;28;20041;-72
2021/05/20 01:37:22;;;;;;;6.78;3.78;;;;;;;;;;6249078;28;20041;-72
2021/05/20 01:40:24;;;;;;;7.30;3.25;;;;;;;;;;6258337;28;20504;-73
2021/05/20 01:43:26;;;;;;;6.72;3.80;;;;;;;;;;6239039;28;20119;-72
2021/05/20 01:46:27;;;;;;;8.68;3.70;;;;;;;;;;6234151;28;20179;-72
2021/05/20 01:49:28;;;;;;;7.47;3.50;;;;;;;;;;6236892;28;20124;-72
2021/05/20 01:52:30;;;;;;;8.73;3.70;;;;;;;;;;6241075;28;20060;-72
2021/05/20 01:55:32;;;;;;;7.07;3.28;;;;;;;;;;6259321;28;20177;-72
2021/05/20 01:58:34;;;;;;;4.97;3.30;;;;;;;;;;6239126;28;20040;-72
2021/05/20 02:01:36;;;;;;;8.52;3.55;;;;;;;;;;6257613;28;20056;-72
2021/05/20 02:04:38;;;;;;;5.85;3.22;;;;;;;;;;6252297;28;20061;-73
2021/05/20 02:07:40;;;;;;;6.47;3.45;;;;;;;;;;6233349;28;20061;-73
2021/05/20 02:10:41;;;;;;;4.68;2.85;;;;;;;;;;6255486;28;20124;-73
2021/05/20 02:13:42;;;;;;;6.60;3.25;;;;;;;;;;6263470;28;20065;-72
2021/05/20 02:16:44;;;;;;;7.65;3.78;;;;;;;;;;6249680;28;20372;-72
2021/05/20 02:19:49;;;;;;;6.45;3.40;;;;;;;;;;6266273;28;20055;-73
2021/05/20 02:22:51;;;;;;;4.65;2.97;;;;;;;;;;6279635;28;20044;-72
2021/05/20 02:25:53;;;;;;;6.75;3.50;;;;;;;;;;6280408;28;20491;-72
2021/05/20 02:28:56;;;;;;;8.52;3.00;;;;;;;;;;6283194;28;20061;-73
2021/05/20 02:31:58;;;;;;;5.72;3.50;;;;;;;;;;6254275;28;20061;-72
2021/05/20 02:35:00;;;;;;;4.80;3.15;;;;;;;;;;6238706;28;20045;-73
2021/05/20 02:38:02;;;;;;;6.97;3.13;;;;;;;;;;6239559;28;20127;-72
2021/05/20 02:41:03;;;;;;;9.10;3.53;;;;;;;;;;6239709;28;20456;-72
2021/05/20 02:44:29;;;;;;;4.97;3.30;;;;;;;;;;6249812;28;20130;-72
2021/05/20 02:47:30;;;;;;;6.20;3.50;;;;;;;;;;6261699;28;20049;-72
2021/05/20 02:50:31;;;;;;;6.95;3.70;;;;;;;;;;6270593;28;20056;-71
2021/05/20 02:53:33;;;;;;;5.88;3.13;;;;;;;;;;6252814;28;20080;-71
2021/05/20 02:56:34;;;;;;;4.15;3.05;;;;;;;;;;6267693;28;20799;-72
2021/05/20 02:59:36;;;;;;;4.75;3.10;;;;;;;;;;6262621;28;20505;-71
2021/05/20 03:02:37;;;;;;;4.85;3.08;;;;;;;;;;6211547;28;20110;-71
2021/05/20 03:05:39;;;;;;;4.85;3.08;;;;;;;;;;6269489;28;20041;-71
2021/05/20 03:08:44;;;;;;;6.30;2.95;;;;;;;;;;6255145;28;20179;-71
2021/05/20 03:11:46;;;;;;;8.23;2.83;;;;;;;;;;6279194;28;20045;-72
2021/05/20 03:14:47;;;;;;;5.55;3.13;;;;;;;;;;6256563;28;20107;-72
2021/05/20 03:17:49;;;;;;;4.80;2.97;;;;;;;;;;6262584;28;20073;-71
2021/05/20 03:20:50;;;;;;;4.38;2.80;;;;;;;;;;6271798;28;20084;-72
2021/05/20 03:23:52;;;;;;;4.72;2.90;;;;;;;;;;6260545;28;20082;-71
2021/05/20 03:26:54;;;;;;;7.78;2.90;;;;;;;;;;6270517;28;20910;-71
2021/05/20 03:29:55;;;;;;;5.20;3.03;;;;;;;;;;6246903;28;20060;-71
2021/05/20 03:32:56;;;;;;;5.63;2.70;;;;;;;;;;6268126;28;20108;-72
2021/05/20 03:35:57;;;;;;;4.78;3.00;;;;;;;;;;6266573;28;20131;-72
2021/05/20 03:38:59;;;;;;;5.93;2.80;;;;;;;;;;6259429;28;20072;-72
2021/05/20 03:42:01;;;;;;;5.32;3.03;;;;;;;;;;6272502;28;20536;-72
2021/05/20 03:45:03;;;;;;;5.78;2.85;;;;;;;;;;6280338;28;20155;-71
2021/05/20 03:48:05;;;;;;;5.40;3.33;;;;;;;;;;6256975;28;20068;-71
2021/05/20 03:51:06;;;;;;;4.47;2.70;;;;;;;;;;6252725;28;20058;-71
2021/05/20 03:54:08;;;;;;;5.30;2.70;;;;;;;;;;6255439;28;20053;-72
2021/05/20 03:57:10;;;;;;;4.47;2.58;;;;;;;;;;6254021;28;20077;-71
2021/05/20 04:00:12;;;;;;;4.97;2.88;;;;;;;;;;6252639;28;20077;-71
2021/05/20 04:03:22;;;;;;;4.88;2.72;;;;;;;;;;6249743;28;20404;-71
2021/05/20 04:06:23;;;;;;;5.78;3.03;;;;;;;;;;6247939;28;20556;-72
2021/05/20 04:09:25;;;;;;;4.20;2.85;;;;;;;;;;6246187;28;20168;-71
2021/05/20 04:12:26;;;;;;;6.13;2.53;;;;;;;;;;6252719;28;20140;-71
2021/05/20 04:15:27;;;;;;;4.75;2.50;;;;;;;;;;6247563;28;20105;-72
2021/05/20 04:18:29;;;;;;;4.63;2.67;;;;;;;;;;6264633;28;20069;-71
2021/05/20 04:21:30;;;;;;;4.40;2.58;;;;;;;;;;6254258;28;20094;-72
2021/05/20 04:24:32;;;;;;;4.55;2.63;;;;;;;;;;6271432;28;20048;-71
2021/05/20 04:27:33;;;;;;;4.03;2.92;;;;;;;;;;6247866;28;20077;-71
2021/05/20 04:30:34;;;;;;;3.65;2.30;;;;;;;;;;6244819;28;20494;-72
2021/05/20 04:33:36;;;;;;;3.70;2.45;;;;;;;;;;6266654;28;20077;-72
2021/05/20 04:36:37;;;;;;;4.05;2.75;;;;;;;;;;6256135;28;20057;-72
2021/05/20 04:39:39;;;;;;;3.63;2.50;;;;;;;;;;6255906;28;20202;-72
2021/05/20 04:42:40;;;;;;;5.00;2.80;;;;;;;;;;6252180;28;20057;-71
2021/05/20 04:45:44;;;;;;;3.80;1.80;;;;;;;;;;6265937;28;20061;-72
2021/05/20 04:48:45;;;;;;;6.25;1.70;;;;;;;;;;6261888;28;20411;-71
2021/05/20 04:51:47;;;;;;;2.95;1.50;;;;;;;;;;6267966;28;20485;-72
2021/05/20 04:54:49;;;;;;;3.60;1.60;;;;;;;;;;6268307;28;20052;-71
2021/05/20 04:57:50;;;;;;;2.63;1.55;;;;;;;;;;6264804;28;20109;-71
2021/05/20 05:00:51;;;;;;;5.97;2.50;;;;;;;;;;6243043;28;20046;-71
2021/05/20 05:03:52;;;;;;;6.85;2.67;;;;;;;;;;6240896;28;20045;-71
2021/05/20 05:06:54;;;;;;;4.63;2.50;;;;;;;;;;6262906;28;20100;-72
2021/05/20 05:09:56;;;;;;;8.65;3.10;;;;;;;;;;6244092;28;20599;-71
2021/05/20 05:12:57;;;;;;;8.88;3.95;;;;;;;;;;6243025;28;20073;-72
2021/05/20 05:15:59;;;;;;;7.90;3.55;;;;;;;;;;6244934;28;20183;-72
2021/05/20 05:19:00;;;;;;;8.77;4.15;;;;;;;;;;6243795;28;20052;-71
2021/05/20 05:22:02;;;;;;;7.47;3.97;;;;;;;;;;6254279;28;20101;-71
2021/05/20 05:25:05;;;;;;;8.15;3.70;;;;;;;;;;6247800;28;20424;-71
2021/05/20 05:28:07;;;;;;;7.07;3.87;;;;;;;;;;6270163;28;20047;-72
2021/05/20 05:31:09;;;;;;;7.25;3.75;;;;;;;;;;6246788;28;20980;-71
2021/05/20 05:34:11;;;;;;;5.45;3.30;;;;;;;;;;6267936;28;20048;-71
2021/05/20 05:37:12;;;;;;;5.20;3.28;;;;;;;;;;6259953;28;20053;-71
2021/05/20 05:40:15;;;;;;;8.18;3.75;;;;;;;;;;6244456;28;20098;-71
2021/05/20 05:43:16;;;;;;;6.93;3.50;;;;;;;;;;6239164;28;20059;-71
2021/05/20 05:46:17;;;;;;;12.15;3.67;;;;;;;;;;6242045;28;20171;-72
2021/05/20 05:49:21;;;;;;;8.05;3.70;;;;;;;;;;6249173;28;20258;-71
2021/05/20 05:52:23;;;;;;;9.05;3.80;;;;;;;;;;6249943;28;20143;-71
2021/05/20 05:55:25;;;;;;;8.95;3.80;;;;;;;;;;6249801;28;20480;-71
2021/05/20 05:58:26;;;;;;;5.88;3.60;;;;;;;;;;6250061;28;20688;-71
2021/05/20 06:01:27;;;;;;;4.85;3.45;;;;;;;;;;6266407;28;20412;-71
2021/05/20 06:04:29;;;;;;;6.55;4.18;;;;;;;;;;6261026;28;20450;-71
2021/05/20 06:07:34;;;;;;;7.53;4.55;;;;;;;;;;6223079;28;20069;-72
2021/05/20 06:10:37;;;;;;;5.28;3.85;;;;;;;;;;6244228;28;20191;-72
2021/05/20 06:13:38;;;;;;;3.80;2.72;;;;;;;;;;6239396;28;20122;-72
2021/05/20 06:16:40;;;;;;;5.07;3.33;;;;;;;;;;6240671;28;20157;-71
2021/05/20 06:19:41;;;;;;;7.20;2.83;;;;;;;;;;6238883;28;20048;-71
2021/05/20 06:22:42;;;;;;;5.15;2.40;;;;;;;;;;6241045;28;20191;-71
2021/05/20 06:25:45;;;;;;;5.45;2.67;;;;;;;;;;6267885;28;20047;-71
2021/05/20 06:28:46;;;;;;;7.23;2.47;;;;;;;;;;6243377;28;20395;-71
2021/05/20 06:31:48;;;;;;;5.75;2.15;;;;;;;;;;6242655;28;20828;-71
2021/05/20 06:34:49;;;;;;;4.25;1.95;;;;;;;;;;6264075;28;20049;-72
2021/05/20 06:37:50;;;;;;;6.82;4.18;;;;;;;;;;6264794;28;20049;-71
2021/05/20 06:40:54;;;;;;;3.63;2.22;;;;;;;;;;6258403;28;20409;-71
2021/05/20 06:43:55;;;;;;;3.78;2.10;;;;;;;;;;6234262;28;20064;-71
2021/05/20 06:46:56;;;;;;;3.13;2.30;;;;;;;;;;6231861;28;20053;-71
2021/05/20 06:49:57;;;;;;;3.70;2.40;;;;;;;;;;6236590;28;20046;-71
2021/05/20 06:52:59;;;;;;;3.72;2.17;;;;;;;;;;6243003;28;20051;-71
2021/05/20 06:56:02;;;;;;;6.63;2.22;;;;;;;;;;6261685;28;20110;-71
2021/05/20 07:02:23;;;;;;;6.22;2.55;;;;;;;;;;6265249;28;20049;-72
2021/05/20 07:05:24;;;;;;;4.13;2.05;;;;;;;;;;6239918;28;20059;-72
2021/05/20 07:08:25;;;;;;;5.75;2.17;;;;;;;;;;6230660;28;20050;-72
2021/05/20 07:11:30;;;;;;;3.25;1.95;;;;;;;;;;6237305;28;20060;-72
2021/05/20 07:14:31;;;;;;;3.40;1.55;;;;;;;;;;6237884;28;20107;-72
2021/05/20 07:17:32;;;;;;;5.13;2.35;;;;;;;;;;6256531;28;20538;-72
2021/05/20 07:20:33;;;;;;;2.33;1.67;;;;;;;;;;6236470;28;20060;-72
2021/05/20 07:23:34;;;;;;;4.90;1.92;;;;;;;;;;6252434;28;20296;-71
2021/05/20 07:26:36;;;;;;;4.43;2.08;;;;;;;;;;6249340;28;20378;-72
2021/05/20 07:29:37;;;;;;;3.40;2.05;;;;;;;;;;6239531;28;20461;-72
2021/05/20 07:32:38;;;;;;;6.07;2.38;;;;;;;;;;6240003;28;20603;-72
2021/05/20 07:35:39;;;;;;;4.82;1.75;;;;;;;;;;6231949;28;20140;-72
2021/05/20 07:38:41;;;;;;;5.45;1.88;;;;;;;;;;6235542;28;20041;-72
2021/05/20 07:41:44;;;;;;;5.30;2.13;;;;;;;;;;6235968;28;20053;-72
2021/05/20 07:44:46;;;;;;;5.47;1.60;;;;;;;;;;6239622;28;20052;-72
2021/05/20 07:47:48;;;;;;;4.40;1.70;;;;;;;;;;6237353;28;20053;-72
2021/05/20 07:50:49;;;;;;;5.38;1.85;;;;;;;;;;6256597;28;20068;-72
2021/05/20 07:53:50;;;;;;;5.00;1.60;;;;;;;;;;6251252;28;20037;-72
2021/05/20 07:56:52;;;;;;;3.75;1.25;;;;;;;;;;6240121;28;20760;-72
2021/05/20 07:59:54;;;;;;;1.77;0.77;;;;;;;;;;6238966;28;20053;-72
2021/05/20 08:03:00;;;;;;;3.75;0.73;;;;;;;;;;6254230;28;20540;-71
2021/05/20 08:06:07;;;;;;;7.22;3.10;;;;;;;;;;6252625;28;20860;-71
2021/05/20 08:09:18;;;;;;;1.65;0.80;;;;;;;;;;6238046;28;20454;-71
2021/05/20 08:12:20;;;;;;;1.58;0.20;;;;;;;;;;6239208;28;20069;-71
2021/05/20 08:15:21;;;;;;;1.85;0.20;;;;;;;;;;6239972;28;20061;-71
2021/05/20 08:18:22;;;;;;;1.88;0.30;;;;;;;;;;6240198;28;20056;-71
2021/05/20 08:21:23;;;;;;;2.08;0.30;;;;;;;;;;6239623;28;20153;-72
2021/05/20 08:24:24;;;;;;;3.38;0.40;;;;;;;;;;6240385;28;20046;-72
2021/05/20 08:27:27;;;;;;;1.13;0.20;;;;;;;;;;6236467;28;20052;-72
2021/05/20 08:30:28;;;;;;;3.33;0.60;;;;;;;;;;6241320;28;20053;-71
2021/05/20 08:33:29;;;;;;;0.85;0.35;;;;;;;;;;6261838;28;20139;-71
2021/05/20 08:36:31;;;;;;;4.18;0.50;;;;;;;;;;6262933;28;20056;-72
2021/05/20 08:39:32;;;;;;;1.17;0.60;;;;;;;;;;6261362;28;20524;-71
2021/05/20 08:42:35;;;;;;;0.93;0.38;;;;;;;;;;6264815;28;21218;-75
2021/05/20 08:45:38;;;;;;;2.30;0.43;;;;;;;;;;6259051;28;20136;-72
2021/05/20 08:48:39;;;;;;;2.92;0.50;;;;;;;;;;6238494;28;20083;-71
2021/05/20 08:51:40;;;;;;;0.70;0.28;;;;;;;;;;6251849;28;20044;-72
2021/05/20 08:54:42;;;;;;;3.00;0.25;;;;;;;;;;6248717;28;20087;-72
2021/05/20 08:57:44;;;;;;;2.10;0.40;;;;;;;;;;6259986;28;20076;-72
2021/05/20 09:00:46;;;;;;;1.85;0.52;;;;;;;;;;6240447;28;20053;-72
2021/05/20 09:03:57;;;;;;;18.10;2.17;;;;;;;;;;6246131;28;20049;-72
2021/05/20 09:07:10;;;;;;;2.28;0.40;;;;;;;;;;6262949;28;20053;-71
2021/05/20 09:10:20;;;;;;;1.27;0.22;;;;;;;;;;6232882;28;20056;-71
2021/05/20 09:13:22;;;;;;;0.50;0.40;;;;;;;;;;6239354;28;20405;-71
2021/05/20 09:16:24;;;;;;;1.95;0.30;;;;;;;;;;6237493;28;20053;-72
2021/05/20 09:19:25;;;;;;;1.08;0.30;;;;;;;;;;6237532;28;20088;-72
2021/05/20 09:22:31;;;;;;;0.80;0.10;;;;;;;;;;6241985;28;20049;-71
2021/05/20 09:25:34;;;;;;;0.22;0.10;;;;;;;;;;6242002;28;20048;-72
2021/05/20 09:28:40;;;;;;;1.95;0.63;;;;;;;;;;6256875;28;20144;-71
2021/05/20 09:31:43;;;;;;;3.15;0.30;;;;;;;;;;6249851;28;20132;-71
2021/05/20 09:34:44;;;;;;;;;;;;;;;;;;6234331;28;20097;-72
2021/05/20 09:37:48;;;;;;;1.48;0.20;;;;;;;;;;6246876;28;19925;-72
2021/05/20 09:40:52;;;;;;;1.45;0.30;;;;;;;;;;6257965;28;20589;-72
2021/05/20 09:43:54;;;;;;;3.70;0.50;;;;;;;;;;6235488;28;20041;-72
2021/05/20 09:46:59;;;;;;;0.80;0.40;;;;;;;;;;6235917;28;20116;-72
2021/05/20 09:50:03;;;;;;;0.77;0.30;;;;;;;;;;6235437;28;20613;-72
2021/05/20 09:53:08;;;;;;;6.15;0.30;;;;;;;;;;6235619;28;20061;-72
2021/05/20 09:56:10;;;;;;;1.50;0.40;;;;;;;;;;6233780;28;20081;-72
2021/05/20 09:59:15;;;;;;;1.35;0.47;;;;;;;;;;6239773;28;20836;-72
2021/05/20 10:02:17;;;;;;;1.08;0.20;;;;;;;;;;6240380;28;20053;-71
2021/05/20 10:05:23;;;;;;;1.60;0.30;;;;;;;;;;6254693;28;20148;-71
2021/05/20 10:08:26;;;;;;;4.30;0.57;;;;;;;;;;6239426;28;20045;-72
2021/05/20 10:11:27;;;;;;;0.25;0.20;;;;;;;;;;6251793;28;20054;-71
2021/05/20 10:14:30;;;;;;;0.30;0.22;;;;;;;;;;6235184;28;20182;-72
2021/05/20 10:17:31;;;;;;;1.52;0.15;;;;;;;;;;6234090;28;20136;-72
2021/05/20 10:20:34;;;;;;;1.95;0.60;;;;;;;;;;6237674;28;20060;-72
2021/05/20 10:23:35;;;;;;;0.47;0.17;;;;;;;;;;6237673;28;20041;-71
2021/05/20 10:26:39;;;;;;;1.33;0.45;;;;;;;;;;6233858;28;20069;-72
2021/05/20 10:29:41;;;;;;;0.75;0.32;;;;;;;;;;6252181;28;20061;-71
2021/05/20 10:32:44;;;;;;;1.23;0.40;;;;;;;;;;6238968;28;20057;-72
2021/05/20 10:35:46;;;;;;;;;;;;;;;;;;6248915;28;20120;-72
2021/05/20 10:38:47;;;;;;;0.47;0.20;;;;;;;;;;6243889;28;19924;-72
2021/05/20 10:41:48;;;;;;;1.13;0.73;;;;;;;;;;6260906;28;20057;-72
2021/05/20 10:45:18;;;;;;;0.68;0.22;;;;;;;;;;6249131;28;20761;-71
2021/05/20 10:48:20;;;;;;;1.42;0.32;;;;;;;;;;6255185;28;20052;-71
2021/05/20 10:51:22;;;;;;;;;;;;;;;;;;6241463;28;20053;-72
2021/05/20 10:54:25;;;;;;;0.38;0.30;;;;;;;;;;6238420;28;20558;-71
2021/05/20 10:57:53;;;;;;;1.23;0.38;;;;;;;;;;6234816;28;20466;-71
2021/05/20 11:00:55;;;;;;;1.55;0.20;;;;;;;;;;6237188;28;20176;-72
2021/05/20 11:03:57;;;;;;;1.50;0.57;;;;;;;;;;6247170;28;20072;-73
2021/05/20 11:06:59;;;;;;;1.58;0.50;;;;;;;;;;6237834;28;20045;-73
2021/05/20 11:10:11;;;;;;;1.52;0.70;;;;;;;;;;6247634;28;20045;-72
2021/05/20 11:13:13;;;;;;;1.77;0.40;;;;;;;;;;6235947;28;20049;-71
2021/05/20 11:16:15;;;;;;;1.65;0.47;;;;;;;;;;6239841;28;20084;-71
2021/05/20 11:19:27;;;;;;;1.17;0.38;;;;;;;;;;6239490;28;20134;-72
2021/05/20 11:22:29;;;;;;;0.90;0.47;;;;;;;;;;6254965;28;20128;-73
2021/05/20 11:25:30;;;;;;;3.08;0.40;;;;;;;;;;6246756;28;20510;-73
2021/05/20 11:28:38;;;;;;;1.67;0.40;;;;;;;;;;6250616;28;20073;-72
2021/05/20 11:31:42;;;;;;;1.65;0.40;;;;;;;;;;6267372;28;20060;-72
2021/05/20 11:37:59;;;;;;;1.85;0.43;;;;;;;;;;6240143;28;21795;-71
2021/05/20 11:41:13;;;;;;;1.58;0.47;;;;;;;;;;6255751;28;20049;-75
2021/05/20 11:44:16;;;;;;;0.43;0.35;;;;;;;;;;6250256;28;20041;-76
2021/05/20 11:47:20;;;;;;;0.73;0.30;;;;;;;;;;6252320;28;20037;-76
2021/05/20 11:50:23;;;;;;;0.28;0.20;;;;;;;;;;6236780;28;20050;-76
2021/05/20 11:53:25;;;;;;;0.20;0.20;;;;;;;;;;6248468;28;20049;-75
2021/05/20 11:56:37;;;;;;;2.28;0.32;;;;;;;;;;6251729;28;20068;-76
2021/05/20 11:59:42;;;;;;;0.25;0.25;;;;;;;;;;6255225;28;20049;-76
2021/05/20 12:02:44;;;;;;;2.35;0.30;;;;;;;;;;6259116;28;20050;-76
2021/05/20 12:05:47;;;;;;;0.20;0.20;;;;;;;;;;6251072;28;20045;-76
2021/05/20 12:09:13;;;;;;;1.60;0.30;;;;;;;;;;6253786;28;20049;-76
2021/05/20 12:12:16;;;;;;;0.20;0.20;;;;;;;;;;6250389;28;20052;-76
2021/05/20 12:15:19;;;;;;;0.57;0.50;;;;;;;;;;6264892;28;20049;-76
2021/05/20 12:18:21;;;;;;;1.15;0.40;;;;;;;;;;6259305;28;20041;-77
2021/05/20 12:21:22;;;;;;;;;;;;;;;;;;6275236;28;20126;-76
2021/05/20 12:24:29;;;;;;;1.33;0.20;;;;;;;;;;6271178;28;19925;-77
2021/05/20 12:27:40;;;;;;;1.55;0.20;;;;;;;;;;6271974;28;20053;-77
2021/05/20 12:30:42;;;;;;;1.00;0.20;;;;;;;;;;6274203;28;20056;-79
2021/05/20 12:33:46;;;;;;;0.43;0.20;;;;;;;;;;6257788;28;20045;-76
2021/05/20 12:36:47;;;;;;;0.55;0.20;;;;;;;;;;6263244;28;20045;-76
2021/05/20 12:39:49;;;;;;;0.77;0.30;;;;;;;;;;6249080;28;20045;-79
2021/05/20 12:43:11;;;;;;;0.38;0.22;;;;;;;;;;6267683;28;20041;-77
2021/05/20 12:46:14;;;;;;;0.52;0.22;;;;;;;;;;6279459;28;20068;-75
2021/05/20 12:49:20;;;;;;;;;;;;;;;;;;6265307;28;20041;-76
2021/05/20 12:52:21;;;;;;;1.00;0.50;;;;;;;;;;6256636;28;19954;-76
2021/05/20 12:55:36;;;;;;;2.65;0.60;;;;;;;;;;6267226;28;20065;-76
2021/05/20 12:58:54;;;;;;;1.40;0.30;;;;;;;;;;6256627;28;20064;-75
2021/05/20 13:01:55;;;;;;;0.98;0.55;;;;;;;;;;6276113;28;20129;-77
2021/05/20 13:05:08;;;;;;;0.30;0.30;;;;;;;;;;6246254;28;20133;-76
2021/05/20 13:08:22;;;;;;;1.48;0.35;;;;;;;;;;6260548;28;20496;-80
2021/05/20 13:11:28;;;;;;;1.15;0.30;;;;;;;;;;6266171;28;20069;-77
2021/05/20 13:14:33;;;;;;;0.85;0.20;;;;;;;;;;6256841;28;20049;-77
2021/05/20 13:17:50;;;;;;;1.10;0.60;;;;;;;;;;6275312;28;20548;-77
2021/05/20 13:24:19;;;;;;;1.50;0.63;;;;;;;;;;6240669;28;20079;-77
2021/05/20 13:27:20;;;;;;;1.35;0.60;;;;;;;;;;6266225;28;20049;-74
2021/05/20 13:30:25;;;;;;;1.42;0.38;;;;;;;;;;6251662;28;20084;-74
2021/05/20 13:33:29;;;;;;;2.33;0.40;;;;;;;;;;6261887;28;21135;-74
2021/05/20 13:36:31;;;;;;;1.48;0.30;;;;;;;;;;6239634;28;20049;-74
2021/05/20 13:39:32;;;;;;;0.30;0.30;;;;;;;;;;6259131;28;20107;-74
2021/05/20 13:42:33;;;;;;;0.60;0.30;;;;;;;;;;6243728;28;20083;-73
2021/05/20 13:45:35;;;;;;;0.32;0.32;;;;;;;;;;6242789;28;20095;-74
2021/05/20 13:48:36;;;;;;;0.45;0.30;;;;;;;;;;6243959;28;20065;-76
2021/05/20 13:51:39;;;;;;;0.43;0.25;;;;;;;;;;6255320;28;20053;-74
2021/05/20 13:54:41;;;;;;;0.45;0.30;;;;;;;;;;6248545;28;20405;-74
2021/05/20 13:57:42;;;;;;;1.10;0.30;;;;;;;;;;6239177;28;20134;-74
2021/05/20 14:00:45;;;;;;;0.57;0.30;;;;;;;;;;6239420;28;20147;-73
2021/05/20 14:03:59;;;;;;;1.70;0.30;;;;;;;;;;6238528;28;20893;-73
2021/05/20 14:07:01;;;;;;;1.88;0.40;;;;;;;;;;6264257;28;20056;-73
2021/05/20 14:10:03;;;;;;;2.33;0.43;;;;;;;;;;6266853;28;20164;-73
2021/05/20 14:13:04;;;;;;;2.08;0.40;;;;;;;;;;6248233;28;20547;-73
2021/05/20 14:16:06;;;;;;;1.08;0.30;;;;;;;;;;6256259;28;20102;-73
2021/05/20 14:19:10;;;;;;;8.20;0.93;;;;;;;;;;6249897;28;20579;-74
2021/05/20 14:22:14;;;;;;;1.85;0.65;;;;;;;;;;6257241;28;20068;-73
2021/05/20 14:25:16;;;;;;;10.60;1.10;;;;;;;;;;6247452;28;20401;-73
2021/05/20 14:28:17;;;;;;;0.88;0.60;;;;;;;;;;6265229;28;20053;-74
2021/05/20 14:31:18;;;;;;;1.00;0.50;;;;;;;;;;6238930;28;20104;-74
2021/05/20 14:34:20;;;;;;;15.15;1.25;;;;;;;;;;6242719;28;20047;-74
2021/05/20 14:37:22;;;;;;;2.72;0.40;;;;;;;;;;6256043;28;20073;-74
2021/05/20 14:40:23;;;;;;;10.40;0.57;;;;;;;;;;6232080;28;20085;-74
2021/05/20 14:43:31;;;;;;;12.35;0.85;;;;;;;;;;6261202;28;20084;-74
2021/05/20 14:46:32;;;;;;;22.38;1.58;;;;;;;;;;6245851;28;20049;-74
2021/05/20 14:49:37;;;;;;;6.50;0.63;;;;;;;;;;6240297;28;20103;-74
2021/05/20 14:52:42;;;;;;;17.42;1.73;;;;;;;;;;6251888;28;20516;-73
2021/05/20 14:55:46;;;;;;;3.65;0.82;;;;;;;;;;6273275;28;20127;-74
2021/05/20 14:59:09;;;;;;;12.98;1.00;;;;;;;;;;6260919;28;20060;-73
2021/05/20 15:05:31;;;;;;;8.52;0.95;;;;;;;;;;6260427;28;20053;-74
2021/05/20 15:08:35;;;;;;;0.20;0.20;;;;;;;;;;6245143;28;20129;-74
2021/05/20 15:11:39;;;;;;;7.25;0.70;;;;;;;;;;6253860;28;20037;-74
2021/05/20 15:14:44;;;;;;;1.42;0.50;;;;;;;;;;6256118;28;20061;-74
2021/05/20 15:17:50;;;;;;;1.52;0.43;;;;;;;;;;6264371;28;20053;-74
2021/05/20 15:20:54;;;;;;;18.33;1.23;;;;;;;;;;6243746;28;20054;-73
2021/05/20 15:23:56;;;;;;;1.02;0.35;;;;;;;;;;6246360;28;20353;-73
2021/05/20 15:27:00;;;;;;;2.70;0.30;;;;;;;;;;6244327;28;20049;-73
2021/05/20 15:30:02;;;;;;;8.38;0.60;;;;;;;;;;6244348;28;20056;-73
2021/05/20 15:33:04;;;;;;;8.57;0.40;;;;;;;;;;6243280;28;20404;-74
2021/05/20 15:36:06;;;;;;;0.80;0.22;;;;;;;;;;6242575;28;20072;-73
2021/05/20 15:39:08;;;;;;;1.02;0.20;;;;;;;;;;6267312;28;20053;-73
2021/05/20 15:42:10;;;;;;;0.30;0.20;;;;;;;;;;6265385;28;20056;-73
2021/05/20 15:45:11;;;;;;;6.88;0.38;;;;;;;;;;6243302;28;21117;-73
2021/05/20 15:48:31;;;;;;;2.22;0.20;;;;;;;;;;6242441;28;20065;-73
2021/05/20 15:51:32;;;;;;;0.95;0.30;;;;;;;;;;6240556;28;20396;-73
2021/05/20 15:54:35;;;;;;;2.47;1.00;;;;;;;;;;6245072;28;20304;-73
2021/05/20 15:57:36;;;;;;;4.40;0.30;;;;;;;;;;6254071;28;20056;-73
2021/05/20 16:00:37;;;;;;;6.53;0.68;;;;;;;;;;6255189;28;20582;-73
2021/05/20 16:03:39;;;;;;;3.17;0.70;;;;;;;;;;6240104;28;20083;-74
2021/05/20 16:06:43;;;;;;;5.53;0.60;;;;;;;;;;6263829;28;20083;-73
2021/05/20 16:09:49;;;;;;;4.97;0.90;;;;;;;;;;6243398;28;20445;-73
2021/05/20 16:13:05;;;;;;;2.03;0.70;;;;;;;;;;6241580;28;20068;-73
2021/05/20 16:16:06;;;;;;;2.70;0.60;;;;;;;;;;6239990;28;20447;-73
2021/05/20 16:19:08;;;;;;;1.13;0.30;;;;;;;;;;6238806;28;20081;-73
2021/05/20 16:22:10;;;;;;;16.58;1.30;;;;;;;;;;6240305;28;20049;-73
2021/05/20 16:25:29;;;;;;;4.50;0.40;;;;;;;;;;6241583;28;20049;-73
2021/05/20 16:35:42;;;;;;;0.70;0.40;;;;;;;;;;6191846;28;20042;-73
2021/05/20 16:38:43;;;;;;;4.32;0.77;;;;;;;;;;6256987;28;20612;-73
2021/05/20 16:41:46;;;;;;;1.05;0.38;;;;;;;;;;6268359;28;20149;-73
2021/05/20 16:44:47;;;;;;;8.00;0.50;;;;;;;;;;6249110;28;20061;-74
2021/05/20 16:47:48;;;;;;;2.80;0.50;;;;;;;;;;6251040;28;20080;-73
2021/05/20 16:50:49;;;;;;;0.73;0.50;;;;;;;;;;6264967;28;20125;-73
2021/05/20 16:53:51;;;;;;;1.45;0.52;;;;;;;;;;6255562;28;20049;-73
2021/05/20 16:56:55;;;;;;;0.55;0.40;;;;;;;;;;6236757;28;20049;-73
2021/05/20 16:59:57;;;;;;;4.78;0.50;;;;;;;;;;6240474;28;20136;-73
2021/05/20 17:02:58;;;;;;;5.07;0.60;;;;;;;;;;6255873;28;20132;-73
2021/05/20 17:05:59;;;;;;;2.45;0.30;;;;;;;;;;6260897;28;20064;-73
2021/05/20 17:09:00;;;;;;;0.68;0.40;;;;;;;;;;6262794;28;20259;-73
2021/05/20 17:12:03;;;;;;;2.50;0.50;;;;;;;;;;6237591;28;20057;-73
2021/05/20 17:15:05;;;;;;;1.40;0.55;;;;;;;;;;6238257;28;20053;-73
2021/05/20 17:18:06;;;;;;;1.55;0.93;;;;;;;;;;6239342;28;20072;-73
2021/05/20 17:21:09;;;;;;;1.05;0.30;;;;;;;;;;6259918;28;20072;-73
2021/05/20 17:24:10;;;;;;;7.15;0.43;;;;;;;;;;6248613;28;20103;-73
2021/05/20 17:27:13;;;;;;;4.95;0.80;;;;;;;;;;6255437;28;20045;-73
2021/05/20 17:30:15;;;;;;;2.67;0.57;;;;;;;;;;6237489;28;20046;-73
2021/05/20 17:33:16;;;;;;;1.67;0.82;;;;;;;;;;6263611;28;20119;-73
2021/05/20 17:36:19;;;;;;;2.35;0.30;;;;;;;;;;6250923;28;20052;-73
2021/05/20 17:39:20;;;;;;;1.10;0.30;;;;;;;;;;6262108;28;20366;-73
2021/05/20 17:42:22;;;;;;;2.15;0.40;;;;;;;;;;6247945;28;20076;-73
2021/05/20 17:45:24;;;;;;;1.67;0.50;;;;;;;;;;6256456;28;20064;-73
2021/05/20 17:48:28;;;;;;;5.10;0.73;;;;;;;;;;6236995;28;20171;-73
2021/05/20 17:51:29;;;;;;;0.70;0.40;;;;;;;;;;6236078;28;20053;-73
2021/05/20 17:54:30;;;;;;;0.60;0.45;;;;;;;;;;6254070;28;20049;-73
2021/05/20 17:57:33;;;;;;;1.35;0.43;;;;;;;;;;6257431;28;20138;-73
2021/05/20 18:00:34;;;;;;;2.92;0.70;;;;;;;;;;6238932;28;20111;-73
2021/05/20 18:03:35;;;;;;;2.03;0.50;;;;;;;;;;6255336;28;20053;-73
2021/05/20 18:06:36;;;;;;;1.92;0.47;;;;;;;;;;6237770;28;20469;-73
2021/05/20 18:09:40;;;;;;;1.00;0.40;;;;;;;;;;6236937;28;20041;-73
2021/05/20 18:12:44;;;;;;;;;;;;;;;;;;6235322;28;20053;-73
2021/05/20 18:15:52;;;;;;;1.15;0.60;;;;;;;;;;6243744;28;19929;-73
2021/05/20 18:19:03;;;;;;;4.28;0.75;;;;;;;;;;6258076;28;20445;-73
2021/05/20 18:22:18;;;;;;;3.97;0.80;;;;;;;;;;6253712;28;20575;-73
2021/05/20 18:25:19;;;;;;;3.00;0.63;;;;;;;;;;6238292;28;20050;-72
2021/05/20 18:28:22;;;;;;;1.00;0.57;;;;;;;;;;6245181;28;20103;-72
2021/05/20 18:31:28;;;;;;;2.55;0.68;;;;;;;;;;6244249;28;20037;-73
2021/05/20 18:34:30;;;;;;;1.00;0.68;;;;;;;;;;6262135;28;20049;-72
2021/05/20 18:37:31;;;;;;;3.35;0.80;;;;;;;;;;6237073;28;20588;-73
2021/05/20 18:40:35;;;;;;;2.13;0.80;;;;;;;;;;6238590;28;20046;-73